Time;durP1;ratioP1;P1;durP2;ratioP2;P2;SDS_P1;SDS_P2;PMS_P1;PMS_P2;Temp;Humidity;BMP_temperature;BMP_pressure;BME280_temperature;BME280_humidity;BME280_pressure;Samples;Min_cycle;Max_cycle;Signal;HPM_P1;HPM_P2
2024/03/17 00:00:14;;;;;;;12.50;6.30;;;;;;;7.40;63.65;100710.75;112462;1254;21941;-74
2024/03/17 00:03:05;;;;;;;11.50;5.00;;;;;;;7.34;63.78;100709.77;111922;1252;23003;-70
2024/03/17 00:05:34;;;;;;;11.10;5.60;;;;;;;7.32;63.52;100713.78;111326;1254;21954;-71
2024/03/17 00:08:04;;;;;;;11.40;6.00;;;;;;;7.29;63.28;100717.61;111268;1241;22818;-71
2024/03/17 00:10:34;;;;;;;11.00;5.30;;;;;;;7.23;63.34;100719.81;111307;1254;22137;-69
2024/03/17 00:13:03;;;;;;;10.50;5.00;;;;;;;7.18;63.32;100719.70;111310;1254;21968;-70
2024/03/17 00:15:32;;;;;;;9.90;5.80;;;;;;;7.15;63.70;100722.52;111292;1254;22886;-72
2024/03/17 00:18:01;;;;;;;10.80;6.20;;;;;;;7.12;63.77;100723.86;111298;1254;21993;-72
2024/03/17 00:20:30;;;;;;;10.20;5.60;;;;;;;7.10;63.69;100721.70;111233;1254;22041;-71
2024/03/17 00:22:59;;;;;;;12.40;5.70;;;;;;;7.05;63.62;100719.66;111264;1254;21958;-71
2024/03/17 00:25:27;;;;;;;12.20;6.40;;;;;;;6.99;63.96;100722.05;111278;1254;23825;-71
2024/03/17 00:27:57;;;;;;;11.80;6.90;;;;;;;6.96;63.93;100724.14;111357;1254;21963;-70
2024/03/17 00:30:26;;;;;;;11.90;7.00;;;;;;;6.95;64.11;100727.50;111287;1254;21980;-69
2024/03/17 00:32:55;;;;;;;14.70;7.10;;;;;;;6.91;64.00;100725.93;111260;1250;21952;-70
2024/03/17 00:35:25;;;;;;;12.10;7.00;;;;;;;6.87;64.08;100727.40;111280;1254;23687;-69
2024/03/17 00:37:54;;;;;;;13.30;6.60;;;;;;;6.83;63.96;100726.70;111253;1254;24448;-71
2024/03/17 00:40:22;;;;;;;14.50;6.40;;;;;;;6.80;64.30;100722.63;111333;1254;23064;-69
2024/03/17 00:42:54;;;;;;;8.80;5.80;;;;;;;6.79;64.24;100728.83;111271;1254;21959;-70
2024/03/17 00:45:22;;;;;;;12.50;6.90;;;;;;;6.78;64.17;100729.91;111253;1254;21971;-71
2024/03/17 00:47:51;;;;;;;15.50;8.30;;;;;;;6.77;64.19;100731.72;111272;1254;21958;-70
2024/03/17 00:50:20;;;;;;;17.30;7.60;;;;;;;6.74;64.45;100732.20;111259;1254;24282;-72
2024/03/17 00:52:49;;;;;;;10.80;6.10;;;;;;;6.74;64.44;100730.98;111288;1254;22023;-71
2024/03/17 00:55:17;;;;;;;16.40;7.20;;;;;;;6.72;64.14;100734.74;111114;1254;21967;-70
2024/03/17 00:57:46;;;;;;;22.50;7.70;;;;;;;6.71;63.87;100735.34;111212;1254;21961;-69
2024/03/17 01:00:15;;;;;;;17.00;6.90;;;;;;;6.67;63.86;100733.80;111267;1254;24359;-70
2024/03/17 01:02:44;;;;;;;13.80;7.20;;;;;;;6.62;63.65;100733.16;111271;1254;21952;-71
2024/03/17 01:05:13;;;;;;;12.50;6.30;;;;;;;6.56;64.06;100732.89;111286;1254;21974;-72
2024/03/17 01:07:42;;;;;;;18.80;7.50;;;;;;;6.49;64.41;100733.74;111265;1251;21939;-70
2024/03/17 01:10:10;;;;;;;16.70;7.20;;;;;;;6.45;64.23;100734.77;111127;1254;23569;-70
2024/03/17 01:12:39;;;;;;;13.90;6.80;;;;;;;6.42;64.07;100736.14;111275;1254;22114;-69
2024/03/17 01:15:09;;;;;;;17.10;7.70;;;;;;;6.42;64.08;100735.29;111289;1252;23679;-70
2024/03/17 01:17:37;;;;;;;14.40;7.10;;;;;;;6.40;64.24;100734.16;111088;1254;21965;-71
2024/03/17 01:20:08;;;;;;;13.90;6.70;;;;;;;6.37;64.00;100733.94;111286;1254;21953;-72
2024/03/17 01:22:37;;;;;;;15.40;6.20;;;;;;;6.34;63.84;100733.39;111331;1254;21951;-73
2024/03/17 01:25:07;;;;;;;14.20;6.10;;;;;;;6.31;64.14;100736.88;111267;1254;21983;-70
2024/03/17 01:27:35;;;;;;;14.90;6.80;;;;;;;6.29;64.06;100737.67;111255;1254;22147;-70
2024/03/17 01:30:05;;;;;;;12.30;5.70;;;;;;;6.25;63.89;100737.33;111236;1248;21967;-70
2024/03/17 01:32:34;;;;;;;16.40;6.20;;;;;;;6.21;63.76;100738.55;111118;1254;21976;-70
2024/03/17 01:35:03;;;;;;;14.00;6.30;;;;;;;6.18;63.81;100741.14;111253;1254;21959;-69
2024/03/17 01:37:32;;;;;;;18.30;5.90;;;;;;;6.16;63.81;100738.78;111230;1254;23494;-72
2024/03/17 01:40:01;;;;;;;13.90;6.00;;;;;;;6.13;63.68;100740.48;111104;1254;23071;-74
2024/03/17 01:42:30;;;;;;;12.00;4.70;;;;;;;6.10;63.61;100743.27;111121;1254;23601;-70
2024/03/17 01:44:58;;;;;;;14.60;5.60;;;;;;;6.06;63.71;100742.74;111287;1254;22433;-69
2024/03/17 01:47:27;;;;;;;13.00;5.50;;;;;;;6.01;63.64;100740.84;111328;1254;22918;-70
2024/03/17 01:49:56;;;;;;;14.80;6.10;;;;;;;5.98;63.44;100742.20;111272;1254;21952;-71
2024/03/17 01:52:25;;;;;;;14.50;6.20;;;;;;;5.96;63.43;100744.23;111251;1254;22419;-71
2024/03/17 01:54:54;;;;;;;16.00;5.90;;;;;;;5.94;63.76;100749.19;111253;1254;21963;-70
2024/03/17 01:57:22;;;;;;;15.80;6.10;;;;;;;5.91;63.53;100749.51;111140;1254;23038;-70
2024/03/17 01:59:52;;;;;;;12.50;5.80;;;;;;;5.87;63.71;100750.35;111219;1254;24304;-70
2024/03/17 02:02:21;;;;;;;17.90;6.30;;;;;;;5.84;63.79;100749.10;111180;1254;22528;-71
2024/03/17 02:04:50;;;;;;;11.70;6.00;;;;;;;5.81;63.87;100752.18;111219;1254;21965;-71
2024/03/17 02:07:19;;;;;;;15.40;6.50;;;;;;;5.78;63.78;100755.83;111224;1254;21979;-71
2024/03/17 02:09:47;;;;;;;12.40;5.20;;;;;;;5.74;64.10;100757.89;111237;1254;22010;-70
2024/03/17 02:12:16;;;;;;;14.60;5.30;;;;;;;5.72;64.01;100756.27;111257;1254;22805;-71
2024/03/17 02:14:45;;;;;;;12.50;5.70;;;;;;;5.70;64.01;100753.73;111253;1250;24044;-69
2024/03/17 02:17:14;;;;;;;14.90;6.20;;;;;;;5.67;63.97;100754.72;111125;1251;21953;-70
2024/03/17 02:19:42;;;;;;;12.50;5.50;;;;;;;5.65;63.67;100757.25;111285;1254;21954;-71
2024/03/17 02:22:15;;;;;;;12.60;5.00;;;;;;;5.63;63.81;100760.33;111169;1254;21956;-71
2024/03/17 02:24:44;;;;;;;15.60;5.40;;;;;;;5.60;63.64;100760.97;111135;1254;21955;-72
2024/03/17 02:27:13;;;;;;;17.20;5.60;;;;;;;5.56;63.57;100758.00;111238;1254;21954;-72
2024/03/17 02:29:42;;;;;;;20.50;6.00;;;;;;;5.52;63.54;100757.45;111223;1254;21962;-71
2024/03/17 02:32:12;;;;;;;9.80;5.80;;;;;;;5.49;63.60;100761.08;111265;1254;21969;-71
2024/03/17 02:34:59;;;;;;;17.60;5.90;;;;;;;5.46;63.63;100763.13;111373;1254;22520;-70
2024/03/17 02:37:29;;;;;;;14.80;5.80;;;;;;;5.42;63.67;100766.61;111265;1254;23031;-72
2024/03/17 02:39:58;;;;;;;15.90;6.00;;;;;;;5.39;63.43;100764.50;111238;1254;21975;-71
2024/03/17 02:42:27;;;;;;;15.70;5.20;;;;;;;5.36;63.57;100766.70;111173;1254;21964;-71
2024/03/17 02:44:55;;;;;;;12.80;5.00;;;;;;;5.32;63.79;100769.12;111228;1254;21954;-70
2024/03/17 02:47:24;;;;;;;18.70;5.50;;;;;;;5.29;63.59;100768.74;111314;1254;23954;-70
2024/03/17 02:49:54;;;;;;;13.90;5.50;;;;;;;5.25;63.50;100766.80;111231;1254;21964;-70
2024/03/17 02:52:24;;;;;;;14.30;5.20;;;;;;;5.22;63.64;100769.38;111138;1254;22270;-70
2024/03/17 02:54:55;;;;;;;17.70;5.20;;;;;;;5.20;63.61;100767.55;111279;1254;22068;-70
2024/03/17 02:57:32;;;;;;;12.10;4.90;;;;;;;5.17;63.58;100766.08;111279;1254;23563;-71
2024/03/17 03:00:03;;;;;;;18.20;5.80;;;;;;;5.16;63.49;100768.40;111191;1254;24572;-71
2024/03/17 03:02:32;;;;;;;22.60;7.10;;;;;;;5.12;63.31;100770.82;111202;1254;21993;-70
2024/03/17 03:05:01;;;;;;;17.20;6.30;;;;;;;5.08;63.46;100772.39;111224;1254;21964;-71
2024/03/17 03:07:30;;;;;;;19.60;5.90;;;;;;;5.03;63.31;100774.35;111253;1254;22052;-71
2024/03/17 03:09:58;;;;;;;14.70;5.90;;;;;;;4.97;63.19;100777.18;111283;1254;23211;-74
2024/03/17 03:12:27;;;;;;;17.90;6.40;;;;;;;4.91;63.37;100772.20;111248;1254;21953;-71
2024/03/17 03:14:56;;;;;;;14.70;5.00;;;;;;;4.87;63.29;100769.04;111238;1254;21966;-71
2024/03/17 03:17:25;;;;;;;17.30;5.90;;;;;;;4.83;63.45;100771.27;111280;1254;21929;-71
2024/03/17 03:19:55;;;;;;;14.00;5.10;;;;;;;4.80;63.35;100774.02;111272;1254;21956;-71
2024/03/17 03:22:24;;;;;;;14.20;5.50;;;;;;;4.76;63.55;100777.34;110983;1254;23700;-71
2024/03/17 03:24:53;;;;;;;20.70;6.10;;;;;;;4.72;63.49;100780.63;110963;1257;21960;-71
2024/03/17 03:27:24;;;;;;;15.30;4.80;;;;;;;4.68;63.57;100783.91;110688;1259;21971;-71
2024/03/17 03:29:55;;;;;;;16.10;5.50;;;;;;;4.66;63.51;100782.97;110998;1258;22032;-70
2024/03/17 03:32:24;;;;;;;12.50;5.70;;;;;;;4.64;63.39;100785.33;110676;1259;21958;-70
2024/03/17 03:34:53;;;;;;;14.30;4.80;;;;;;;4.59;63.53;100786.21;110942;1259;21977;-71
2024/03/17 03:37:21;;;;;;;16.50;5.40;;;;;;;4.56;63.43;100780.20;110988;1259;22088;-72
2024/03/17 03:39:51;;;;;;;23.30;5.50;;;;;;;4.53;63.42;100780.67;110677;1254;21954;-71
2024/03/17 03:42:20;;;;;;;16.70;4.80;;;;;;;4.50;63.54;100781.65;111306;1254;22420;-70
2024/03/17 03:44:49;;;;;;;19.40;6.10;;;;;;;4.47;63.44;100784.03;111270;1254;21959;-71
2024/03/17 03:47:17;;;;;;;13.50;4.80;;;;;;;4.43;63.35;100782.95;111257;1254;21962;-72
2024/03/17 03:49:46;;;;;;;16.60;6.30;;;;;;;4.38;63.26;100778.41;111235;1254;23601;-71
2024/03/17 03:52:15;;;;;;;14.00;4.70;;;;;;;4.37;63.31;100778.98;111273;1254;22070;-71
2024/03/17 03:54:44;;;;;;;16.30;5.00;;;;;;;4.35;63.25;100776.11;111262;1254;22238;-70
2024/03/17 03:57:13;;;;;;;17.90;4.70;;;;;;;4.34;63.17;100778.95;111260;1254;21977;-71
2024/03/17 03:59:41;;;;;;;10.50;4.40;;;;;;;4.31;63.19;100782.52;111265;1254;21955;-70
2024/03/17 04:02:10;;;;;;;14.90;4.50;;;;;;;4.29;63.00;100777.73;111255;1254;22823;-71
2024/03/17 04:04:39;;;;;;;17.40;5.60;;;;;;;4.27;62.92;100782.14;111291;1254;22524;-70
2024/03/17 04:07:08;;;;;;;14.60;4.40;;;;;;;4.26;62.90;100786.38;111230;1254;23668;-70
2024/03/17 04:09:36;;;;;;;12.20;4.70;;;;;;;4.26;63.08;100789.35;111257;1254;23779;-70
2024/03/17 04:12:06;;;;;;;19.10;8.80;;;;;;;4.27;63.04;100795.40;111248;1254;21969;-71
2024/03/17 04:14:35;;;;;;;26.90;12.20;;;;;;;4.28;62.91;100797.45;111238;1254;21988;-71
2024/03/17 04:17:03;;;;;;;20.10;8.30;;;;;;;4.28;62.77;100802.87;111214;1254;21968;-71
2024/03/17 04:19:32;;;;;;;15.40;5.80;;;;;;;4.27;62.62;100803.78;111232;1254;23531;-70
2024/03/17 04:22:01;;;;;;;14.60;5.00;;;;;;;4.26;62.65;100808.52;111249;1254;23604;-72
2024/03/17 04:24:29;;;;;;;14.80;5.30;;;;;;;4.29;62.90;100800.59;111289;1254;24411;-72
2024/03/17 04:26:59;;;;;;;17.30;5.90;;;;;;;4.31;62.75;100796.30;111229;1241;21953;-73
2024/03/17 04:29:28;;;;;;;18.10;7.20;;;;;;;4.34;62.70;100798.64;111237;1254;23051;-71
2024/03/17 04:31:56;;;;;;;14.50;6.50;;;;;;;4.35;62.58;100793.73;111158;1254;22752;-72
2024/03/17 04:34:25;;;;;;;15.30;5.20;;;;;;;4.38;62.55;100794.65;111239;1254;24427;-72
2024/03/17 04:36:54;;;;;;;18.60;6.30;;;;;;;4.42;62.27;100802.84;111300;1254;22156;-70
2024/03/17 04:39:24;;;;;;;12.70;4.70;;;;;;;4.46;62.16;100807.58;111215;1254;22058;-79
2024/03/17 04:41:53;;;;;;;16.00;5.10;;;;;;;4.50;61.86;100805.02;111295;1254;23758;-74
2024/03/17 04:44:22;;;;;;;14.50;5.00;;;;;;;4.51;61.59;100807.95;111259;1254;22794;-71
2024/03/17 04:46:51;;;;;;;13.90;5.00;;;;;;;4.48;61.38;100814.50;111208;1254;23751;-72
2024/03/17 04:49:20;;;;;;;13.70;5.00;;;;;;;4.48;61.32;100810.31;111346;1254;21958;-72
2024/03/17 04:51:49;;;;;;;14.70;5.20;;;;;;;4.47;61.17;100809.83;111234;1254;21965;-73
2024/03/17 04:54:18;;;;;;;18.30;5.10;;;;;;;4.49;61.35;100808.55;111244;1254;23631;-72
2024/03/17 04:56:47;;;;;;;12.10;4.80;;;;;;;4.50;61.25;100802.40;111249;1254;21979;-72
2024/03/17 04:59:16;;;;;;;15.80;4.90;;;;;;;4.47;60.99;100800.23;111262;1254;23579;-72
2024/03/17 05:01:44;;;;;;;14.50;5.00;;;;;;;4.45;61.17;100798.77;111268;1254;24400;-73
2024/03/17 05:04:13;;;;;;;12.40;4.80;;;;;;;4.42;61.02;100792.73;111261;1254;22933;-73
2024/03/17 05:06:46;;;;;;;16.30;4.90;;;;;;;4.44;61.15;100793.22;110914;1254;22258;-72
2024/03/17 05:09:18;;;;;;;16.20;4.60;;;;;;;4.47;60.82;100793.61;111121;1254;21951;-73
2024/03/17 05:11:47;;;;;;;14.60;4.80;;;;;;;4.47;60.71;100793.80;111221;1254;21978;-73
2024/03/17 05:14:16;;;;;;;16.10;5.70;;;;;;;4.47;60.84;100793.27;111129;1254;22417;-73
2024/03/17 05:16:45;;;;;;;15.10;4.40;;;;;;;4.50;60.72;100796.27;111185;1254;22018;-74
2024/03/17 05:19:15;;;;;;;10.40;4.00;;;;;;;4.53;60.37;100802.44;111221;1252;23210;-73
2024/03/17 05:21:45;;;;;;;22.50;5.20;;;;;;;4.55;60.19;100805.37;111340;1254;22076;-71
2024/03/17 05:24:14;;;;;;;19.30;5.80;;;;;;;4.59;60.29;100810.63;111245;1254;21955;-72
2024/03/17 05:26:43;;;;;;;15.90;4.30;;;;;;;4.64;60.07;100809.38;111298;1254;21956;-72
2024/03/17 05:29:12;;;;;;;17.00;4.70;;;;;;;4.65;59.76;100807.75;111271;1244;21963;-72
2024/03/17 05:31:42;;;;;;;14.20;4.80;;;;;;;4.65;59.47;100812.48;111287;1254;23592;-72
2024/03/17 05:34:11;;;;;;;13.50;4.70;;;;;;;4.67;59.65;100811.52;111183;1254;23820;-70
2024/03/17 05:36:40;;;;;;;14.40;4.20;;;;;;;4.70;59.49;100808.79;111275;1254;21955;-70
2024/03/17 05:39:09;;;;;;;13.30;4.10;;;;;;;4.73;59.18;100812.69;111188;1254;22265;-73
2024/03/17 05:41:38;;;;;;;17.90;4.70;;;;;;;4.72;59.00;100817.45;111266;1254;21969;-72
2024/03/17 05:44:07;;;;;;;16.60;5.40;;;;;;;4.72;59.23;100815.50;111235;1254;21958;-72
2024/03/17 05:46:36;;;;;;;15.10;4.30;;;;;;;4.73;59.42;100816.52;111264;1254;22412;-73
2024/03/17 05:49:04;;;;;;;16.20;5.10;;;;;;;4.76;59.57;100819.89;111304;1254;21965;-71
2024/03/17 05:51:33;;;;;;;13.20;4.30;;;;;;;4.78;59.46;100819.11;111264;1254;23080;-71
2024/03/17 05:54:02;;;;;;;12.90;5.50;;;;;;;4.81;59.56;100811.67;111307;1252;21965;-72
2024/03/17 05:56:31;;;;;;;20.90;5.20;;;;;;;4.85;59.11;100811.36;111309;1254;21977;-71
2024/03/17 05:58:59;;;;;;;13.20;5.10;;;;;;;4.85;58.88;100816.04;111350;1254;23237;-71
2024/03/17 06:01:28;;;;;;;12.80;5.10;;;;;;;4.90;59.00;100817.09;111312;1254;22914;-70
2024/03/17 06:03:57;;;;;;;16.30;4.80;;;;;;;4.96;58.82;100815.98;111336;1254;23709;-71
2024/03/17 06:06:26;;;;;;;13.30;5.20;;;;;;;4.99;58.81;100817.61;111299;1254;21989;-73
2024/03/17 06:08:54;;;;;;;13.50;4.80;;;;;;;5.03;58.93;100822.68;111286;1252;21953;-73
2024/03/17 06:11:23;;;;;;;10.70;4.60;;;;;;;5.11;58.97;100822.55;111254;1254;21998;-74
2024/03/17 06:13:52;;;;;;;18.10;5.90;;;;;;;5.19;59.13;100823.27;111282;1254;21958;-71
2024/03/17 06:16:22;;;;;;;15.70;6.00;;;;;;;5.27;58.87;100826.77;111307;1254;21955;-71
2024/03/17 06:18:51;;;;;;;18.70;5.80;;;;;;;5.31;58.71;100832.39;111269;1254;23576;-72
2024/03/17 06:21:20;;;;;;;13.70;4.90;;;;;;;5.36;58.81;100839.67;111234;1254;22122;-72
2024/03/17 06:23:49;;;;;;;14.60;5.50;;;;;;;5.40;58.95;100840.41;111354;1254;21964;-71
2024/03/17 06:26:18;;;;;;;11.90;5.10;;;;;;;5.44;58.69;100842.85;111352;1244;22132;-73
2024/03/17 06:28:47;;;;;;;14.90;5.20;;;;;;;5.49;58.64;100840.03;111336;1252;23054;-74
2024/03/17 06:31:15;;;;;;;17.30;6.30;;;;;;;5.53;58.40;100842.30;111331;1253;21967;-73
2024/03/17 06:33:44;;;;;;;20.00;11.20;;;;;;;5.59;58.64;100852.88;111141;1254;21955;-72
2024/03/17 06:36:13;;;;;;;18.20;5.80;;;;;;;5.66;58.58;100857.33;111306;1254;21977;-71
2024/03/17 06:38:42;;;;;;;16.40;5.90;;;;;;;5.68;58.29;100855.83;111285;1254;23058;-72
2024/03/17 06:41:12;;;;;;;23.40;9.50;;;;;;;5.67;58.46;100856.05;111291;1247;23680;-71
2024/03/17 06:43:44;;;;;;;13.90;6.10;;;;;;;5.72;58.35;100856.36;111265;1254;21956;-73
2024/03/17 06:46:13;;;;;;;15.20;5.60;;;;;;;5.74;58.45;100861.87;111312;1254;22255;-73
2024/03/17 06:48:42;;;;;;;15.20;5.20;;;;;;;5.75;58.67;100862.34;111297;1254;23667;-72
2024/03/17 06:51:11;;;;;;;11.00;3.70;;;;;;;5.77;58.54;100861.21;111319;1254;22045;-74
2024/03/17 06:53:39;;;;;;;18.90;10.80;;;;;;;5.78;58.66;100862.08;111313;1254;21963;-72
2024/03/17 06:56:09;;;;;;;16.30;5.20;;;;;;;5.79;58.67;100863.77;111335;1254;23149;-72
2024/03/17 06:58:37;;;;;;;15.10;5.20;;;;;;;5.82;58.61;100870.65;111341;1254;22952;-72
2024/03/17 07:01:07;;;;;;;12.90;3.80;;;;;;;5.84;58.13;100871.95;111336;1254;21956;-72
2024/03/17 07:03:36;;;;;;;17.60;4.90;;;;;;;5.83;58.12;100874.98;110807;1254;23160;-73
2024/03/17 07:06:08;;;;;;;12.70;4.20;;;;;;;5.81;58.29;100872.95;110784;1258;21967;-71
2024/03/17 07:08:37;;;;;;;11.20;3.50;;;;;;;5.82;58.44;100869.56;110862;1252;21970;-71
2024/03/17 07:11:07;;;;;;;13.20;4.30;;;;;;;5.86;58.18;100872.20;110982;1258;23009;-72
2024/03/17 07:13:38;;;;;;;15.00;4.70;;;;;;;5.95;58.29;100873.08;110811;1258;23574;-73
2024/03/17 07:16:08;;;;;;;16.90;5.10;;;;;;;6.05;58.01;100870.73;110897;1258;24385;-73
2024/03/17 07:18:37;;;;;;;11.30;4.20;;;;;;;6.19;57.57;100866.45;110819;1258;21963;-75
2024/03/17 07:21:05;;;;;;;16.70;4.30;;;;;;;6.31;56.77;100867.14;110857;1258;24100;-74
2024/03/17 07:23:34;;;;;;;13.70;4.30;;;;;;;6.36;56.45;100863.76;110870;1258;21975;-75
2024/03/17 07:26:06;;;;;;;15.40;5.50;;;;;;;6.39;56.30;100859.80;110914;1258;22013;-72
2024/03/17 07:28:35;;;;;;;14.00;5.30;;;;;;;6.38;55.84;100863.15;110816;1258;22072;-73
2024/03/17 07:31:03;;;;;;;12.90;5.20;;;;;;;6.39;56.17;100868.20;110705;1258;21959;-73
2024/03/17 07:33:32;;;;;;;14.40;4.40;;;;;;;6.42;56.24;100872.23;110823;1258;22836;-72
2024/03/17 07:36:02;;;;;;;13.60;4.00;;;;;;;6.43;56.12;100878.50;111198;1254;23794;-72
2024/03/17 07:38:31;;;;;;;11.50;4.50;;;;;;;6.43;56.03;100880.58;111038;1254;23627;-73
2024/03/17 07:41:04;;;;;;;13.60;4.70;;;;;;;6.40;55.96;100881.58;111258;1254;21959;-74
2024/03/17 07:43:38;;;;;;;17.30;6.70;;;;;;;6.38;55.97;100886.25;111269;1254;21956;-73
2024/03/17 07:46:12;;;;;;;15.80;4.80;;;;;;;6.37;55.78;100892.43;111288;1254;21967;-72
2024/03/17 07:48:43;;;;;;;13.10;4.50;;;;;;;6.33;56.01;100899.96;111310;1254;23680;-73
2024/03/17 07:51:14;;;;;;;13.30;4.60;;;;;;;6.31;56.02;100899.15;111260;1254;21956;-73
2024/03/17 07:53:46;;;;;;;15.20;4.50;;;;;;;6.28;55.57;100904.02;111301;1254;24299;-73
2024/03/17 07:56:16;;;;;;;12.70;4.90;;;;;;;6.23;55.91;100902.63;111252;1254;21963;-73
2024/03/17 07:58:47;;;;;;;10.40;4.80;;;;;;;6.24;55.59;100900.14;111211;1254;21915;-72
2024/03/17 08:01:16;;;;;;;10.80;5.00;;;;;;;6.28;55.58;100895.77;111099;1255;21964;-72
2024/03/17 08:03:53;;;;;;;11.10;3.90;;;;;;;6.32;55.62;100902.79;111268;1255;21957;-72
2024/03/17 08:06:22;;;;;;;12.00;5.50;;;;;;;6.31;55.83;100901.23;111243;1255;23002;-72
2024/03/17 08:08:51;;;;;;;10.60;4.40;;;;;;;6.31;55.63;100901.98;111240;1255;21979;-72
2024/03/17 08:11:21;;;;;;;17.30;5.50;;;;;;;6.30;55.49;100900.60;111114;1254;21966;-73
2024/03/17 08:13:50;;;;;;;15.80;5.50;;;;;;;6.31;55.47;100898.45;111348;1254;22029;-70
2024/03/17 08:16:19;;;;;;;13.90;6.50;;;;;;;6.36;55.52;100899.28;111284;1244;21964;-74
2024/03/17 08:18:47;;;;;;;18.20;5.00;;;;;;;6.41;55.82;100895.77;111200;1254;21953;-71
2024/03/17 08:21:16;;;;;;;14.50;5.50;;;;;;;6.44;55.36;100897.02;111291;1253;21952;-71
2024/03/17 08:23:47;;;;;;;12.20;4.90;;;;;;;6.44;54.85;100896.11;111339;1252;23014;-72
2024/03/17 08:26:15;;;;;;;13.90;5.60;;;;;;;6.46;54.88;100895.86;111302;1254;22338;-72
2024/03/17 08:28:46;;;;;;;17.40;5.80;;;;;;;6.47;54.86;100897.05;111281;1254;22002;-72
2024/03/17 08:31:17;;;;;;;14.00;5.30;;;;;;;6.49;54.82;100894.67;111286;1250;22729;-75
2024/03/17 08:33:47;;;;;;;15.50;5.20;;;;;;;6.53;54.64;100899.78;111241;1254;23051;-74
2024/03/17 08:36:21;;;;;;;12.90;5.70;;;;;;;6.56;54.65;100901.89;111227;1254;21979;-71
2024/03/17 08:38:50;;;;;;;12.70;6.10;;;;;;;6.58;54.41;100901.64;111233;1254;21960;-73
2024/03/17 08:41:19;;;;;;;12.50;4.70;;;;;;;6.62;54.86;100905.84;111250;1254;21971;-72
2024/03/17 08:43:48;;;;;;;16.30;6.90;;;;;;;6.66;55.13;100903.03;111272;1254;22740;-73
2024/03/17 08:46:16;;;;;;;10.50;5.40;;;;;;;6.69;54.76;100903.04;111136;1254;21951;-71
2024/03/17 08:48:45;;;;;;;18.20;5.60;;;;;;;6.72;54.67;100908.88;111302;1254;21947;-73
2024/03/17 08:51:14;;;;;;;14.00;6.10;;;;;;;6.72;54.24;100910.48;111242;1250;23765;-70
2024/03/17 08:53:43;;;;;;;14.30;5.60;;;;;;;6.71;54.37;100908.74;111220;1254;23681;-72
2024/03/17 08:56:13;;;;;;;10.30;5.10;;;;;;;6.71;54.64;100910.48;111333;1254;22183;-72
2024/03/17 08:58:42;;;;;;;12.80;6.10;;;;;;;6.68;54.45;100910.31;111306;1254;21954;-71
2024/03/17 09:01:14;;;;;;;21.00;6.80;;;;;;;6.63;54.67;100909.98;111280;1254;23039;-72
2024/03/17 09:03:43;;;;;;;;;;;;;;;6.58;54.72;100909.17;111238;1254;23689;-72
2024/03/17 09:06:16;;;;;;;27.40;10.70;;;;;;;6.42;54.66;100908.65;111313;1254;23012;-72
2024/03/17 09:08:45;;;;;;;14.70;7.50;;;;;;;6.38;54.80;100908.98;111318;1254;22428;-73
2024/03/17 09:11:15;;;;;;;23.10;13.00;;;;;;;6.45;55.12;100913.07;112644;1254;21886;-73
2024/03/17 09:13:44;;;;;;;11.30;5.10;;;;;;;6.61;55.35;100910.98;112847;1254;22169;-73
2024/03/17 09:16:14;;;;;;;18.30;6.70;;;;;;;6.71;54.70;100910.65;113015;1254;22274;-73
2024/03/17 09:18:43;;;;;;;14.10;5.70;;;;;;;6.80;54.37;100909.58;113037;1254;21902;-73
2024/03/17 09:21:16;;;;;;;11.20;5.30;;;;;;;6.84;54.22;100908.87;112865;1254;21822;-72
2024/03/17 09:23:45;;;;;;;13.10;5.50;;;;;;;6.84;54.15;100905.54;112951;1254;21986;-73
2024/03/17 09:26:16;;;;;;;13.10;5.60;;;;;;;6.84;54.54;100908.69;112788;1254;21900;-72
2024/03/17 09:28:46;;;;;;;13.00;5.60;;;;;;;6.89;54.39;100902.52;112819;1255;31016;-74
2024/03/17 09:31:51;;;;;;;18.60;7.10;;;;;;;7.10;54.54;100904.50;109300;1289;543990;-74
2024/03/17 09:34:20;;;;;;;17.40;7.10;;;;;;;7.12;53.85;100905.14;111765;1268;22000;-74
2024/03/17 09:36:48;;;;;;;16.60;6.90;;;;;;;7.15;53.80;100908.86;111753;1267;22020;-74
2024/03/17 09:39:19;;;;;;;18.00;9.60;;;;;;;7.14;53.48;100916.58;111723;1268;22270;-72
2024/03/17 09:41:51;;;;;;;18.00;5.80;;;;;;;7.10;53.35;100918.20;111452;1268;22017;-74
2024/03/17 09:44:20;;;;;;;14.80;6.10;;;;;;;7.03;53.29;100916.92;112120;1258;170686;-70
2024/03/17 09:46:50;;;;;;;16.50;7.70;;;;;;;6.98;53.56;100913.83;111137;1258;23693;-72
2024/03/17 09:49:19;;;;;;;15.10;6.70;;;;;;;6.94;53.72;100919.77;111139;1258;21972;-72
2024/03/17 09:51:50;;;;;;;16.60;8.60;;;;;;;6.90;53.67;100914.72;110749;1251;23781;-71
2024/03/17 09:54:19;;;;;;;14.70;6.50;;;;;;;6.88;54.10;100915.33;110447;1263;23066;-71
2024/03/17 09:56:48;;;;;;;13.30;5.70;;;;;;;6.85;54.21;100917.55;110487;1263;21970;-69
2024/03/17 09:59:17;;;;;;;11.70;5.10;;;;;;;6.85;54.49;100916.88;110409;1263;21973;-71
2024/03/17 10:01:48;;;;;;;12.80;5.80;;;;;;;6.80;54.52;100915.18;110376;1257;21979;-71
2024/03/17 10:04:33;;;;;;;14.50;5.10;;;;;;;6.75;54.89;100922.59;110588;1263;21965;-72
2024/03/17 10:07:05;;;;;;;17.30;6.50;;;;;;;6.68;55.13;100926.38;110358;1263;21988;-72
2024/03/17 10:09:33;;;;;;;16.40;6.90;;;;;;;6.70;55.37;100928.20;110604;1263;22540;-73
2024/03/17 10:12:05;;;;;;;20.20;7.50;;;;;;;6.77;55.81;100930.36;110493;1263;22376;-71
2024/03/17 10:14:34;;;;;;;14.00;6.60;;;;;;;6.81;55.81;100929.64;110490;1263;22081;-72
2024/03/17 10:17:03;;;;;;;16.20;7.70;;;;;;;6.78;55.92;100929.06;110519;1263;22770;-71
2024/03/17 10:19:32;;;;;;;13.60;6.90;;;;;;;6.76;55.79;100931.97;110351;1263;22771;-74
2024/03/17 10:22:03;;;;;;;15.40;7.00;;;;;;;6.74;56.07;100933.29;110470;1252;21968;-72
2024/03/17 10:24:33;;;;;;;40.70;32.60;;;;;;;6.74;56.53;100936.44;110493;1263;21970;-70
2024/03/17 10:27:03;;;;;;;19.90;11.60;;;;;;;6.83;57.54;100939.52;110572;1263;21978;-73
2024/03/17 10:29:37;;;;;;;16.90;5.70;;;;;;;6.94;56.55;100937.44;110591;1261;23620;-73
2024/03/17 10:32:18;;;;;;;11.90;4.70;;;;;;;6.97;55.97;100936.97;110567;1263;21975;-72
2024/03/17 10:34:48;;;;;;;11.20;4.10;;;;;;;6.98;55.25;100932.56;110528;1257;21971;-74
2024/03/17 10:37:27;;;;;;;10.30;4.20;;;;;;;7.07;54.96;100927.06;110549;1263;21977;-71
2024/03/17 10:39:59;;;;;;;11.50;4.20;;;;;;;7.28;54.51;100929.58;110662;1263;21973;-73
2024/03/17 10:42:31;;;;;;;21.00;14.40;;;;;;;7.38;53.89;100927.89;110422;1263;23709;-72
2024/03/17 10:45:18;;;;;;;11.20;5.50;;;;;;;7.33;54.17;100929.36;110522;1263;21972;-72
2024/03/17 10:47:50;;;;;;;13.50;5.10;;;;;;;7.32;54.41;100929.56;110332;1263;22144;-74
2024/03/17 10:50:26;;;;;;;13.20;6.00;;;;;;;7.35;54.16;100926.30;110590;1263;22234;-73
2024/03/17 10:53:02;;;;;;;15.80;6.80;;;;;;;7.36;53.97;100924.63;110500;1263;21968;-71
2024/03/17 10:55:43;;;;;;;14.80;5.80;;;;;;;7.41;54.13;100926.66;110332;1263;22159;-72
2024/03/17 10:58:33;;;;;;;13.80;5.70;;;;;;;7.52;53.89;100933.52;110597;1264;22880;-73
2024/03/17 11:01:07;;;;;;;13.50;4.90;;;;;;;7.65;53.52;100932.23;110284;1263;22070;-72
2024/03/17 11:03:36;;;;;;;13.30;7.00;;;;;;;7.76;53.28;100927.09;110450;1262;21971;-76
2024/03/17 11:06:08;;;;;;;31.90;26.80;;;;;;;7.86;53.21;100930.48;110495;1264;22003;-83
2024/03/17 11:08:49;;;;;;;13.90;6.10;;;;;;;7.92;53.02;100934.00;110319;1263;24375;-71
2024/03/17 11:11:37;;;;;;;13.70;5.90;;;;;;;7.87;52.59;100928.83;110535;1263;21980;-72
2024/03/17 11:14:22;;;;;;;14.60;6.60;;;;;;;7.68;52.04;100922.76;110515;1264;21983;-73
2024/03/17 11:16:50;;;;;;;16.40;6.60;;;;;;;7.55;52.21;100923.41;110498;1263;21971;-72
2024/03/17 11:19:19;;;;;;;20.10;9.00;;;;;;;7.50;52.38;100928.04;110335;1263;21976;-73
2024/03/17 11:21:48;;;;;;;12.00;6.10;;;;;;;7.50;52.61;100924.48;110499;1263;22966;-73
2024/03/17 11:24:21;;;;;;;10.80;5.90;;;;;;;7.48;52.49;100925.10;110527;1262;23692;-73
2024/03/17 11:26:50;;;;;;;13.30;6.40;;;;;;;7.53;52.50;100928.91;110391;1263;21980;-73
2024/03/17 11:29:29;;;;;;;12.10;4.70;;;;;;;7.54;50.90;100923.98;110557;1263;21978;-73